createdAt,value
2022-12-27T00:00:27.075Z,98201.23
2022-12-27T00:02:53.755Z,98206.69
2022-12-27T00:05:20.425Z,98203.92
2022-12-27T00:07:47.013Z,98204.88
2022-12-27T00:10:13.528Z,98203.37
2022-12-27T00:12:40.069Z,98199.17
2022-12-27T00:15:07.259Z,98202.54
2022-12-27T00:17:33.768Z,98203.16
2022-12-27T00:20:04.091Z,98204.44
2022-12-27T00:22:35.026Z,98212.59
2022-12-27T00:25:01.573Z,98214.66
2022-12-27T00:27:28.023Z,98209.70
2022-12-27T00:29:54.557Z,98215.28
2022-12-27T00:32:21.095Z,98212.96
2022-12-27T00:34:47.551Z,98210.69
2022-12-27T00:37:14.077Z,98211.46
2022-12-27T00:39:40.823Z,98218.51
2022-12-27T00:42:07.340Z,98221.63
2022-12-27T00:44:33.900Z,98221.39
2022-12-27T00:47:00.306Z,98222.08
2022-12-27T00:49:26.880Z,98218.41
2022-12-27T00:51:53.419Z,98215.90
2022-12-27T00:54:19.843Z,98215.91
2022-12-27T00:56:46.336Z,98214.48
2022-12-27T00:59:13.183Z,98204.91
2022-12-27T01:01:40.739Z,98196.27
2022-12-27T01:04:07.427Z,98205.20
2022-12-27T01:06:35.548Z,98202.77
2022-12-27T01:09:03.721Z,98198.70
2022-12-27T01:11:31.062Z,98194.09
2022-12-27T01:13:59.696Z,98191.98
2022-12-27T01:16:28.087Z,98185.05
2022-12-27T01:18:55.813Z,98182.60
2022-12-27T01:21:24.657Z,98176.52
2022-12-27T01:23:52.025Z,98171.65
2022-12-27T01:26:21.581Z,98169.88
2022-12-27T01:28:49.618Z,98173.36
2022-12-27T01:31:18.856Z,98174.69
2022-12-27T01:33:45.901Z,98172.86
2022-12-27T01:36:16.083Z,98169.48
2022-12-27T01:38:43.422Z,98169.73
2022-12-27T01:41:24.465Z,98167.36
2022-12-27T01:43:50.975Z,98174.44
2022-12-27T01:46:18.221Z,98170.50
2022-12-27T01:48:45.528Z,98169.02
2022-12-27T01:51:12.354Z,98159.88
2022-12-27T01:53:43.856Z,98147.86
2022-12-27T01:56:29.422Z,98142.35
2022-12-27T01:59:02.003Z,98134.05
2022-12-27T02:01:34.334Z,98137.45
2022-12-27T02:04:16.557Z,98139.89
2022-12-27T02:06:43.739Z,98132.27
2022-12-27T02:09:29.224Z,98137.96
2022-12-27T02:11:57.472Z,98138.30
2022-12-27T02:14:38.871Z,98138.65
2022-12-27T02:17:07.731Z,98129.93
2022-12-27T02:19:40.508Z,98126.80
2022-12-27T02:22:30.675Z,98121.98
2022-12-27T02:24:57.108Z,98123.65
2022-12-27T02:27:41.363Z,98122.20
2022-12-27T02:30:09.551Z,98120.37
2022-12-27T02:32:44.277Z,98118.28
2022-12-27T02:35:33.961Z,98112.35
2022-12-27T02:38:06.958Z,98108.36
2022-12-27T02:40:35.857Z,98109.26
2022-12-27T02:43:03.089Z,98102.81
2022-12-27T02:45:33.585Z,98100.75
2022-12-27T02:48:00.268Z,98091.73
2022-12-27T02:50:44.749Z,98084.23
2022-12-27T02:53:23.102Z,98088.20
2022-12-27T02:56:07.841Z,98100.14
2022-12-27T02:59:02.424Z,98095.98
2022-12-27T03:01:34.796Z,98100.90
2022-12-27T03:04:23.163Z,98104.86
2022-12-27T03:06:56.415Z,98106.83
2022-12-27T03:09:30.237Z,98111.05
2022-12-27T03:11:57.009Z,98110.91
2022-12-27T03:14:35.597Z,98115.34
2022-12-27T03:17:11.691Z,98112.73
2022-12-27T03:19:50.732Z,98113.73
2022-12-27T03:22:20.870Z,98116.80
2022-12-27T03:24:47.560Z,98112.16
2022-12-27T03:27:23.182Z,98113.27
2022-12-27T03:29:53.235Z,98120.11
2022-12-27T03:32:21.620Z,98126.04
2022-12-27T03:34:55.660Z,98121.52
2022-12-27T03:37:36.067Z,98117.11
2022-12-27T03:40:27.620Z,98119.47
2022-12-27T03:43:01.053Z,98120.85
2022-12-27T03:45:47.880Z,98127.59
2022-12-27T03:48:20.848Z,98125.22
2022-12-27T03:50:53.647Z,98127.52
2022-12-27T03:53:29.801Z,98133.26
2022-12-27T03:55:56.914Z,98135.27
2022-12-27T03:58:23.715Z,98131.39
2022-12-27T04:00:50.116Z,98131.13
2022-12-27T04:03:18.263Z,98134.02
2022-12-27T04:05:44.769Z,98134.20
2022-12-27T04:08:11.309Z,98136.23
2022-12-27T04:10:37.966Z,98139.38
2022-12-27T04:13:04.353Z,98144.99
2022-12-27T04:15:31.199Z,98146.93
2022-12-27T04:17:57.685Z,98146.55
2022-12-27T04:20:24.814Z,98149.91
2022-12-27T04:22:51.306Z,98150.63
2022-12-27T04:25:17.772Z,98158.79
2022-12-27T04:27:44.212Z,98159.27
2022-12-27T04:30:11.711Z,98164.77
2022-12-27T04:32:38.351Z,98168.90
2022-12-27T04:35:05.503Z,98174.35
2022-12-27T04:37:32.149Z,98182.30
2022-12-27T04:39:58.843Z,98189.91
2022-12-27T04:42:25.335Z,98197.88
2022-12-27T04:44:51.888Z,98202.46
2022-12-27T04:47:22.095Z,98205.88
2022-12-27T04:49:48.782Z,98214.64
2022-12-27T04:52:18.010Z,98221.54
2022-12-27T04:54:44.588Z,98232.58
2022-12-27T04:57:11.109Z,98229.86
2022-12-27T04:59:37.647Z,98229.42
2022-12-27T05:02:04.378Z,98237.38
2022-12-27T05:04:35.227Z,98239.34
2022-12-27T05:07:02.253Z,98253.86
2022-12-27T05:09:28.813Z,98260.77
2022-12-27T05:11:55.450Z,98257.41
2022-12-27T05:14:21.905Z,98251.41
2022-12-27T05:16:48.376Z,98252.75
2022-12-27T05:19:15.041Z,98258.89
2022-12-27T05:21:44.452Z,98266.45
2022-12-27T05:24:10.919Z,98267.80
2022-12-27T05:26:38.044Z,98271.45
2022-12-27T05:29:06.653Z,98274.78
2022-12-27T05:31:33.684Z,98274.17
2022-12-27T05:34:00.290Z,98275.83
2022-12-27T05:36:27.417Z,98287.06
2022-12-27T05:38:53.951Z,98288.19
2022-12-27T05:41:20.491Z,98287.71
2022-12-27T05:43:47.014Z,98291.83
2022-12-27T05:46:18.883Z,98295.61
2022-12-27T05:48:46.861Z,98305.17
2022-12-27T05:51:16.448Z,98318.77
2022-12-27T05:53:43.721Z,98319.91
2022-12-27T05:56:15.258Z,98315.91
2022-12-27T05:58:42.650Z,98315.73
2022-12-27T06:01:11.583Z,98311.19
2022-12-27T06:03:38.818Z,98306.11
2022-12-27T06:06:07.937Z,98301.36
2022-12-27T06:08:35.605Z,98304.69
2022-12-27T06:11:14.415Z,98310.80
2022-12-27T06:13:42.569Z,98310.94
2022-12-27T06:16:11.682Z,98312.04
2022-12-27T06:18:40.263Z,98321.95
2022-12-27T06:21:12.549Z,98329.72
2022-12-27T06:23:41.822Z,98340.58
2022-12-27T06:26:12.675Z,98372.88
2022-12-27T06:28:39.219Z,98397.04
2022-12-27T06:31:05.850Z,98405.33
2022-12-27T06:33:33.171Z,98425.98
2022-12-27T06:35:59.602Z,98443.87
2022-12-27T06:38:26.095Z,98449.47
2022-12-27T06:40:52.584Z,98451.44
2022-12-27T06:43:19.068Z,98455.29
2022-12-27T06:45:45.517Z,98460.96
2022-12-27T06:48:12.262Z,98460.46
2022-12-27T06:50:38.667Z,98467.80
2022-12-27T06:53:05.073Z,98479.80
2022-12-27T06:55:31.575Z,98492.41
2022-12-27T06:57:58.012Z,98495.89
2022-12-27T07:00:24.444Z,98499.44
2022-12-27T07:02:51.139Z,98513.93
2022-12-27T07:05:17.729Z,98523.14
2022-12-27T07:07:44.273Z,98542.27
2022-12-27T07:10:10.812Z,98549.38
2022-12-27T07:12:37.356Z,98558.32
2022-12-27T07:15:06.324Z,98568.12
2022-12-27T07:17:34.959Z,98575.01
2022-12-27T07:20:02.299Z,98575.03
2022-12-27T07:22:28.695Z,98586.89
2022-12-27T07:24:55.280Z,98590.30
2022-12-27T07:27:21.669Z,98600.63
2022-12-27T07:29:48.345Z,98610.03
2022-12-27T07:32:15.102Z,98611.42
2022-12-27T07:34:41.844Z,98622.02
2022-12-27T07:37:08.573Z,98630.80
2022-12-27T07:39:35.375Z,98649.54
2022-12-27T07:42:07.789Z,98662.66
2022-12-27T07:44:34.864Z,98675.38
2022-12-27T07:47:01.287Z,98687.09
2022-12-27T07:49:27.946Z,98696.41
2022-12-27T07:51:54.384Z,98704.75
2022-12-27T07:54:21.075Z,98711.05
2022-12-27T07:56:47.569Z,98726.02
2022-12-27T07:59:14.219Z,98735.53
2022-12-27T08:01:40.797Z,98737.73
2022-12-27T08:04:07.363Z,98752.08
2022-12-27T08:06:35.107Z,98757.79
2022-12-27T08:09:06.465Z,98768.16
2022-12-27T08:11:32.954Z,98781.27
2022-12-27T08:13:59.368Z,98794.99
2022-12-27T08:16:26.838Z,98796.77
2022-12-27T08:18:53.550Z,98806.29
2022-12-27T08:21:20.101Z,98811.84
2022-12-27T08:23:46.764Z,98815.52
2022-12-27T08:26:13.290Z,98821.93
2022-12-27T08:28:40.081Z,98827.31
2022-12-27T08:31:08.964Z,98838.14
2022-12-27T08:33:37.192Z,98840.53
2022-12-27T08:36:22.323Z,98837.08
2022-12-27T08:38:54.161Z,98853.52
2022-12-27T08:41:21.440Z,98860.73
2022-12-27T08:43:47.889Z,98867.58
2022-12-27T08:46:14.400Z,98869.94
2022-12-27T08:48:40.984Z,98874.20
2022-12-27T08:51:12.599Z,98870.89
2022-12-27T08:53:41.192Z,98867.89
2022-12-27T08:56:07.931Z,98875.22
2022-12-27T08:58:34.411Z,98876.39
2022-12-27T09:01:08.279Z,98880.65
2022-12-27T09:03:35.327Z,98881.70
2022-12-27T09:06:13.280Z,98888.73
2022-12-27T09:08:41.724Z,98887.48
2022-12-27T09:11:11.054Z,98884.48
2022-12-27T09:13:37.896Z,98889.01
2022-12-27T09:16:10.256Z,98889.84
2022-12-27T09:18:38.460Z,98892.67
2022-12-27T09:21:11.057Z,98891.94
2022-12-27T09:23:38.250Z,98894.09
2022-12-27T09:26:06.007Z,98891.67
2022-12-27T09:28:32.609Z,98900.58
2022-12-27T09:30:59.195Z,98902.48
2022-12-27T09:33:25.722Z,98896.35
2022-12-27T09:35:52.629Z,98900.17
2022-12-27T09:38:19.277Z,98906.09
2022-12-27T09:40:55.323Z,98903.50
2022-12-27T09:43:39.501Z,98903.29
2022-12-27T09:46:13.138Z,98902.21
2022-12-27T09:48:40.659Z,98909.55
2022-12-27T09:51:18.053Z,98909.89
2022-12-27T09:54:09.694Z,98912.64
2022-12-27T09:57:09.675Z,98912.58
2022-12-27T09:59:28.980Z,98913.85
2022-12-27T10:01:55.583Z,98916.78
2022-12-27T10:04:22.320Z,98912.58
2022-12-27T10:06:48.919Z,98919.83
2022-12-27T10:09:21.076Z,98916.59
2022-12-27T10:11:58.574Z,98914.09
2022-12-27T10:14:28.084Z,98918.16
2022-12-27T10:17:02.916Z,98919.17
2022-12-27T10:19:38.792Z,98918.88
2022-12-27T10:22:24.641Z,98922.06
2022-12-27T10:24:56.466Z,98927.02
2022-12-27T10:27:26.246Z,98931.89
2022-12-27T10:29:55.482Z,98929.61
2022-12-27T10:32:22.544Z,98931.52
2022-12-27T10:34:55.762Z,98932.21
2022-12-27T10:37:22.839Z,98930.23
2022-12-27T10:39:49.252Z,98936.20
2022-12-27T10:42:35.504Z,98942.34
2022-12-27T10:45:31.399Z,98939.30
2022-12-27T10:48:15.238Z,98942.70
2022-12-27T10:50:48.665Z,98939.21
2022-12-27T10:53:30.310Z,98940.86
2022-12-27T10:56:10.045Z,98948.77
2022-12-27T10:59:19.656Z,98947.58
2022-12-27T11:01:48.668Z,98937.98
2022-12-27T11:04:21.062Z,98942.77
2022-12-27T11:07:12.352Z,98934.46
2022-12-27T11:09:43.490Z,98941.16
2022-12-27T11:12:24.071Z,98942.39
2022-12-27T11:15:00.212Z,98943.83
2022-12-27T11:17:35.681Z,98948.27
2022-12-27T11:20:19.601Z,98945.25
2022-12-27T11:22:54.337Z,98945.70
2022-12-27T11:25:21.681Z,98945.39
2022-12-27T11:27:51.928Z,98944.91
2022-12-27T11:30:34.992Z,98948.29
2022-12-27T11:33:39.221Z,98952.60
2022-12-27T11:36:09.059Z,98952.81
2022-12-27T11:38:38.403Z,98954.86
2022-12-27T11:41:20.874Z,98956.16
2022-12-27T11:44:00.213Z,98955.32
2022-12-27T11:47:04.776Z,98957.37
2022-12-27T11:49:37.079Z,98951.88
2022-12-27T11:52:22.154Z,98957.39
2022-12-27T11:55:17.350Z,98957.41
2022-12-27T11:58:25.302Z,98959.63
2022-12-27T12:01:14.382Z,98958.71
2022-12-27T12:04:17.950Z,98956.14
2022-12-27T12:07:21.854Z,98964.86
2022-12-27T12:10:06.436Z,98962.60
2022-12-27T12:13:03.785Z,98964.11
2022-12-27T12:15:36.699Z,98970.63
2022-12-27T12:18:18.051Z,98968.77
2022-12-27T12:21:09.301Z,98971.37
2022-12-27T12:23:54.049Z,98969.43
2022-12-27T12:26:23.293Z,98973.05
2022-12-27T12:29:15.417Z,98974.80
2022-12-27T12:32:05.223Z,98960.00
2022-12-27T12:34:50.678Z,98971.44
2022-12-27T12:37:45.261Z,98962.64
2022-12-27T12:40:38.544Z,98959.43
2022-12-27T12:43:26.999Z,98957.02
2022-12-27T12:46:30.915Z,98961.41
2022-12-27T12:49:15.390Z,98959.40
2022-12-27T12:52:25.301Z,98956.02
2022-12-27T12:54:57.545Z,98950.73
2022-12-27T12:57:42.906Z,98954.63
2022-12-27T13:00:24.479Z,98956.70
2022-12-27T13:03:03.023Z,98956.42
2022-12-27T13:05:45.168Z,98956.65
2022-12-27T13:08:32.735Z,98961.46
2022-12-27T13:11:27.105Z,98965.88
2022-12-27T13:14:12.105Z,98964.44
2022-12-27T13:16:59.487Z,98968.47
2022-12-27T13:19:50.229Z,98964.45
2022-12-27T13:22:23.365Z,98966.30
2022-12-27T13:25:17.053Z,98970.86
2022-12-27T13:28:28.820Z,98975.02
2022-12-27T13:31:22.420Z,98972.60
2022-12-27T13:34:10.559Z,98976.17
2022-12-27T13:37:11.413Z,98976.08
2022-12-27T13:39:43.816Z,98976.80
2022-12-27T13:42:43.061Z,98973.21
2022-12-27T13:45:23.299Z,98974.77
2022-12-27T13:47:55.908Z,98976.16
2022-12-27T13:50:34.584Z,98972.60
2022-12-27T13:53:22.076Z,98976.34
2022-12-27T13:56:27.254Z,98978.75
2022-12-27T13:59:13.840Z,98979.98
2022-12-27T14:02:06.380Z,98983.23
2022-12-27T14:05:09.474Z,98989.70
2022-12-27T14:07:46.878Z,98990.49
2022-12-27T14:10:19.519Z,98994.32
2022-12-27T14:13:03.668Z,98998.16
2022-12-27T14:15:49.839Z,99002.48
2022-12-27T14:18:42.568Z,98999.61
2022-12-27T14:21:44.552Z,99002.94
2022-12-27T14:24:37.054Z,99008.21
2022-12-27T14:27:09.330Z,99013.27
2022-12-27T14:29:57.613Z,99013.95
2022-12-27T14:32:49.156Z,99011.73
2022-12-27T14:35:30.641Z,99019.19
2022-12-27T14:38:15.850Z,99018.23
2022-12-27T14:41:07.978Z,99023.17
2022-12-27T14:43:49.657Z,99027.36
2022-12-27T14:46:36.513Z,99029.65
2022-12-27T14:49:33.842Z,99032.80
2022-12-27T14:52:31.251Z,99032.67
2022-12-27T14:55:25.306Z,99035.30
2022-12-27T14:58:02.577Z,99036.02
2022-12-27T15:00:59.708Z,99040.19
2022-12-27T15:04:03.804Z,99045.23
2022-12-27T15:06:47.498Z,99040.80
2022-12-27T15:09:16.662Z,99049.00
2022-12-27T15:11:51.942Z,99053.65
2022-12-27T15:14:28.319Z,99050.74
2022-12-27T15:17:12.982Z,99057.77
2022-12-27T15:20:14.457Z,99057.67
2022-12-27T15:22:57.513Z,99058.91
2022-12-27T15:25:30.344Z,99056.56
2022-12-27T15:28:32.842Z,99059.00
2022-12-27T15:31:26.860Z,99058.55
2022-12-27T15:34:30.544Z,99065.08
2022-12-27T15:36:57.499Z,99063.20
2022-12-27T15:39:32.997Z,99067.14
2022-12-27T15:42:02.226Z,99071.42
2022-12-27T15:45:04.227Z,99079.16
2022-12-27T15:47:46.202Z,99077.10
2022-12-27T15:50:15.529Z,99075.55
2022-12-27T15:52:54.360Z,99076.41
2022-12-27T15:55:54.795Z,99081.61
2022-12-27T15:58:25.326Z,99080.59
2022-12-27T16:01:22.172Z,99079.57
2022-12-27T16:03:53.223Z,99084.73
2022-12-27T16:06:35.001Z,99087.32
2022-12-27T16:09:23.301Z,99091.81
2022-12-27T16:12:02.629Z,99091.13
2022-12-27T16:14:32.053Z,99095.06
2022-12-27T16:17:07.158Z,99095.04
2022-12-27T16:19:46.433Z,99093.85
2022-12-27T16:22:26.840Z,99094.91
2022-12-27T16:24:53.818Z,99097.83
2022-12-27T16:27:29.984Z,99099.56
2022-12-27T16:29:58.243Z,99102.50
2022-12-27T16:32:27.493Z,99105.84
2022-12-27T16:35:09.983Z,99107.76
2022-12-27T16:37:45.748Z,99110.90
2022-12-27T16:40:30.685Z,99114.35
2022-12-27T16:42:57.149Z,99116.09
2022-12-27T16:45:43.652Z,99117.16
2022-12-27T16:48:40.727Z,99122.83
2022-12-27T16:51:17.392Z,99117.83
2022-12-27T16:54:00.526Z,99119.04
2022-12-27T16:56:29.941Z,99117.81
2022-12-27T16:58:57.438Z,99118.81
2022-12-27T17:01:36.248Z,99119.30
2022-12-27T17:04:03.763Z,99118.27
2022-12-27T17:06:33.268Z,99120.11
2022-12-27T17:09:09.778Z,99121.48
2022-12-27T17:11:56.523Z,99119.04
2022-12-27T17:14:31.609Z,99120.40
2022-12-27T17:17:25.093Z,99121.80
2022-12-27T17:20:02.218Z,99121.45
2022-12-27T17:22:34.980Z,99117.38
2022-12-27T17:25:15.084Z,99114.20
2022-12-27T17:27:56.088Z,99113.41
2022-12-27T17:30:26.220Z,99114.55
2022-12-27T17:33:09.426Z,99116.17
2022-12-27T17:35:54.213Z,99123.15
2022-12-27T17:38:38.877Z,99127.73
2022-12-27T17:41:47.093Z,99129.92
2022-12-27T17:44:37.936Z,99125.73
2022-12-27T17:47:16.067Z,99131.11
2022-12-27T17:49:43.098Z,99134.09
2022-12-27T17:52:16.999Z,99132.58
2022-12-27T17:54:43.528Z,99135.35
2022-12-27T17:57:15.308Z,99135.02
2022-12-27T17:59:47.092Z,99134.16
2022-12-27T18:02:24.816Z,99140.02
2022-12-27T18:04:54.643Z,99145.13
2022-12-27T18:07:27.545Z,99144.45
2022-12-27T18:10:26.639Z,99145.95
2022-12-27T18:12:55.958Z,99140.27
2022-12-27T18:15:24.957Z,99146.96
2022-12-27T18:17:58.287Z,99146.39
2022-12-27T18:20:27.461Z,99146.90
2022-12-27T18:23:02.854Z,99147.40
2022-12-27T18:25:34.016Z,99144.98
2022-12-27T18:28:03.573Z,99147.51
2022-12-27T18:30:37.477Z,99152.10
2022-12-27T18:33:04.843Z,99153.80
2022-12-27T18:35:31.594Z,99150.66
2022-12-27T18:37:58.010Z,99146.73
2022-12-27T18:40:25.689Z,99148.77
2022-12-27T18:42:53.765Z,99153.02
2022-12-27T18:45:27.870Z,99162.27
2022-12-27T18:47:57.175Z,99170.48
2022-12-27T18:50:30.196Z,99168.92
2022-12-27T18:53:02.664Z,99163.78
2022-12-27T18:55:29.472Z,99172.17
2022-12-27T18:58:06.530Z,99171.27
2022-12-27T19:00:48.116Z,99173.79
2022-12-27T19:03:16.001Z,99176.54
2022-12-27T19:06:13.186Z,99178.24
2022-12-27T19:08:51.440Z,99179.11
2022-12-27T19:11:24.809Z,99183.77
2022-12-27T19:13:58.244Z,99187.88
2022-12-27T19:16:31.308Z,99183.90
2022-12-27T19:19:26.411Z,99182.36
2022-12-27T19:21:53.603Z,99184.59
2022-12-27T19:24:32.740Z,99182.84
2022-12-27T19:27:16.275Z,99189.81
2022-12-27T19:29:50.900Z,99197.02
2022-12-27T19:32:24.098Z,99197.86
2022-12-27T19:34:53.712Z,99203.65
2022-12-27T19:37:20.747Z,99201.20
2022-12-27T19:39:48.366Z,99201.35
2022-12-27T19:42:18.474Z,99201.70
2022-12-27T19:44:44.991Z,99204.26
2022-12-27T19:47:14.704Z,99208.91
2022-12-27T19:49:43.377Z,99207.58
2022-12-27T19:52:26.444Z,99208.29
2022-12-27T19:55:00.762Z,99213.29
2022-12-27T19:57:27.285Z,99212.09
2022-12-27T19:59:53.749Z,99217.27
2022-12-27T20:02:20.465Z,99218.83
2022-12-27T20:04:47.482Z,99221.77
2022-12-27T20:07:21.466Z,99220.59
2022-12-27T20:09:48.092Z,99223.54
2022-12-27T20:12:16.202Z,99225.11
2022-12-27T20:14:42.938Z,99225.52
2022-12-27T20:17:09.431Z,99220.42
2022-12-27T20:19:35.816Z,99222.84
2022-12-27T20:22:02.254Z,99218.27
2022-12-27T20:24:28.980Z,99215.24
2022-12-27T20:26:55.414Z,99207.95
2022-12-27T20:29:21.897Z,99208.51
2022-12-27T20:31:48.812Z,99209.25
2022-12-27T20:34:15.746Z,99208.60
2022-12-27T20:36:42.726Z,99210.00
2022-12-27T20:39:09.224Z,99213.29
2022-12-27T20:41:36.063Z,99220.02
2022-12-27T20:44:03.259Z,99230.17
2022-12-27T20:46:29.724Z,99233.31
2022-12-27T20:48:56.815Z,99234.23
2022-12-27T20:51:28.377Z,99233.23
2022-12-27T20:53:56.786Z,99230.31
2022-12-27T20:56:23.443Z,99230.52
2022-12-27T20:58:49.971Z,99233.63
2022-12-27T21:01:19.696Z,99234.36
2022-12-27T21:03:46.998Z,99234.70
2022-12-27T21:06:16.957Z,99235.06
2022-12-27T21:08:49.173Z,99243.48
2022-12-27T21:11:23.437Z,99243.88
2022-12-27T21:13:50.772Z,99244.62
2022-12-27T21:16:23.396Z,99248.77
2022-12-27T21:18:50.299Z,99252.77
2022-12-27T21:21:20.741Z,99251.95
2022-12-27T21:23:49.988Z,99251.16
2022-12-27T21:26:23.052Z,99251.73
2022-12-27T21:28:49.973Z,99256.24
2022-12-27T21:31:19.459Z,99259.20
2022-12-27T21:33:47.575Z,99258.69
2022-12-27T21:36:20.337Z,99259.02
2022-12-27T21:38:47.793Z,99254.77
2022-12-27T21:41:15.890Z,99253.73
2022-12-27T21:43:43.680Z,99255.27
2022-12-27T21:46:16.223Z,99252.69
2022-12-27T21:48:43.343Z,99253.75
2022-12-27T21:51:18.642Z,99252.92
2022-12-27T21:53:45.712Z,99253.64
2022-12-27T21:56:14.057Z,99253.50
2022-12-27T21:58:42.273Z,99255.23
2022-12-27T22:01:16.350Z,99251.84
2022-12-27T22:03:45.400Z,99254.23
2022-12-27T22:06:13.542Z,99261.43
2022-12-27T22:08:41.337Z,99258.69
2022-12-27T22:11:07.799Z,99253.17
2022-12-27T22:13:34.503Z,99250.58
2022-12-27T22:16:03.962Z,99245.38
2022-12-27T22:18:32.495Z,99248.95
2022-12-27T22:21:05.201Z,99247.89
2022-12-27T22:23:36.963Z,99252.14
2022-12-27T22:26:04.523Z,99248.34
2022-12-27T22:28:31.471Z,99245.96
2022-12-27T22:30:58.023Z,99243.75
2022-12-27T22:33:24.450Z,99238.77
2022-12-27T22:35:50.865Z,99235.87
2022-12-27T22:38:17.317Z,99235.02
2022-12-27T22:40:46.544Z,99231.27
2022-12-27T22:43:13.886Z,99225.80
2022-12-27T22:45:41.548Z,99225.93
2022-12-27T22:48:07.991Z,99229.35
2022-12-27T22:50:34.528Z,99233.82
2022-12-27T22:53:00.963Z,99232.64
2022-12-27T22:55:27.507Z,99237.45
2022-12-27T22:57:53.899Z,99235.39
2022-12-27T23:00:20.490Z,99229.59
2022-12-27T23:02:47.058Z,99232.69
2022-12-27T23:05:13.673Z,99230.14
2022-12-27T23:08:04.062Z,99227.25
2022-12-27T23:10:26.518Z,99232.42
2022-12-27T23:12:52.974Z,99232.11
2022-12-27T23:15:19.591Z,99229.23
2022-12-27T23:17:46.002Z,99232.52
2022-12-27T23:20:12.662Z,99240.21
2022-12-27T23:22:39.071Z,99236.10
2022-12-27T23:25:05.751Z,99233.02
2022-12-27T23:27:32.207Z,99236.63
2022-12-27T23:29:58.603Z,99239.04
2022-12-27T23:32:25.161Z,99240.77
2022-12-27T23:34:51.581Z,99240.82
2022-12-27T23:37:18.247Z,99241.86
2022-12-27T23:39:44.778Z,99239.67
2022-12-27T23:42:11.193Z,99240.22
2022-12-27T23:44:37.649Z,99239.39
2022-12-27T23:47:05.619Z,99238.89
2022-12-27T23:49:32.778Z,99239.95
2022-12-27T23:51:59.222Z,99237.41
2022-12-27T23:54:25.694Z,99236.23
2022-12-27T23:56:52.246Z,99240.19
2022-12-27T23:59:18.954Z,99240.89
